sensor_id;sensor_type;location;lat;lon;timestamp;temperature;humidity
54429;DHT22;40337;52.978;6.310;2023-07-09T00:00:21;22.20;99.90
54429;DHT22;40337;52.978;6.310;2023-07-09T00:02:48;22.30;99.90
54429;DHT22;40337;52.978;6.310;2023-07-09T00:05:15;22.20;99.90
54429;DHT22;40337;52.978;6.310;2023-07-09T00:07:42;22.10;99.90
54429;DHT22;40337;52.978;6.310;2023-07-09T00:10:20;22.00;99.90
54429;DHT22;40337;52.978;6.310;2023-07-09T00:12:47;22.00;99.90
54429;DHT22;40337;52.978;6.310;2023-07-09T00:15:15;22.00;99.90
54429;DHT22;40337;52.978;6.310;2023-07-09T00:17:43;21.90;99.90
54429;DHT22;40337;52.978;6.310;2023-07-09T00:20:18;21.90;99.90
54429;DHT22;40337;52.978;6.310;2023-07-09T00:22:44;21.90;99.90
54429;DHT22;40337;52.978;6.310;2023-07-09T00:25:21;22.00;99.90
54429;DHT22;40337;52.978;6.310;2023-07-09T00:27:47;21.80;99.90
54429;DHT22;40337;52.978;6.310;2023-07-09T00:30:21;21.80;99.90
54429;DHT22;40337;52.978;6.310;2023-07-09T00:32:48;21.70;99.90
54429;DHT22;40337;52.978;6.310;2023-07-09T00:35:14;21.70;99.90
54429;DHT22;40337;52.978;6.310;2023-07-09T00:37:43;21.60;99.90
54429;DHT22;40337;52.978;6.310;2023-07-09T00:40:17;21.60;99.90
54429;DHT22;40337;52.978;6.310;2023-07-09T00:42:49;21.60;99.90
54429;DHT22;40337;52.978;6.310;2023-07-09T00:45:26;21.60;99.90
54429;DHT22;40337;52.978;6.310;2023-07-09T00:50:37;21.50;99.90
54429;DHT22;40337;52.978;6.310;2023-07-09T00:53:15;21.50;99.90
54429;DHT22;40337;52.978;6.310;2023-07-09T00:55:45;21.40;99.90
54429;DHT22;40337;52.978;6.310;2023-07-09T00:58:13;21.40;99.90
54429;DHT22;40337;52.978;6.310;2023-07-09T01:00:50;21.30;99.90
54429;DHT22;40337;52.978;6.310;2023-07-09T01:03:29;21.30;99.90
54429;DHT22;40337;52.978;6.310;2023-07-09T01:05:56;21.30;99.90
54429;DHT22;40337;52.978;6.310;2023-07-09T01:08:23;21.20;99.90
54429;DHT22;40337;52.978;6.310;2023-07-09T01:10:49;21.20;99.90
54429;DHT22;40337;52.978;6.310;2023-07-09T01:13:16;21.10;99.90
54429;DHT22;40337;52.978;6.310;2023-07-09T01:15:45;21.10;99.90
54429;DHT22;40337;52.978;6.310;2023-07-09T01:18:11;21.00;99.90
54429;DHT22;40337;52.978;6.310;2023-07-09T01:20:38;20.90;99.90
54429;DHT22;40337;52.978;6.310;2023-07-09T01:23:04;21.00;99.90
54429;DHT22;40337;52.978;6.310;2023-07-09T01:25:31;21.00;99.90
54429;DHT22;40337;52.978;6.310;2023-07-09T01:27:57;20.90;99.90
54429;DHT22;40337;52.978;6.310;2023-07-09T01:30:28;20.90;99.90
54429;DHT22;40337;52.978;6.310;2023-07-09T01:32:59;20.80;99.90
54429;DHT22;40337;52.978;6.310;2023-07-09T01:35:27;20.80;99.90
54429;DHT22;40337;52.978;6.310;2023-07-09T01:37:54;20.70;99.90
54429;DHT22;40337;52.978;6.310;2023-07-09T01:40:21;20.70;99.90
54429;DHT22;40337;52.978;6.310;2023-07-09T01:42:48;20.60;99.90
54429;DHT22;40337;52.978;6.310;2023-07-09T01:45:14;20.60;99.90
54429;DHT22;40337;52.978;6.310;2023-07-09T01:47:41;20.50;99.90
54429;DHT22;40337;52.978;6.310;2023-07-09T01:50:08;20.60;99.90
54429;DHT22;40337;52.978;6.310;2023-07-09T01:52:37;20.60;99.90
54429;DHT22;40337;52.978;6.310;2023-07-09T01:55:03;20.50;99.90
54429;DHT22;40337;52.978;6.310;2023-07-09T01:57:30;20.50;99.90
54429;DHT22;40337;52.978;6.310;2023-07-09T02:00:08;20.50;99.90
54429;DHT22;40337;52.978;6.310;2023-07-09T02:02:35;20.50;99.90
54429;DHT22;40337;52.978;6.310;2023-07-09T02:05:01;20.60;99.90
54429;DHT22;40337;52.978;6.310;2023-07-09T02:07:27;20.60;99.90
54429;DHT22;40337;52.978;6.310;2023-07-09T02:09:53;20.50;99.90
54429;DHT22;40337;52.978;6.310;2023-07-09T02:12:19;20.50;99.90
54429;DHT22;40337;52.978;6.310;2023-07-09T02:14:45;20.50;99.90
54429;DHT22;40337;52.978;6.310;2023-07-09T02:17:13;20.40;99.90
54429;DHT22;40337;52.978;6.310;2023-07-09T02:19:38;20.30;99.90
54429;DHT22;40337;52.978;6.310;2023-07-09T02:22:05;20.30;99.90
54429;DHT22;40337;52.978;6.310;2023-07-09T02:24:31;20.20;99.90
54429;DHT22;40337;52.978;6.310;2023-07-09T02:26:59;20.20;99.90
54429;DHT22;40337;52.978;6.310;2023-07-09T02:29:25;20.10;99.90
54429;DHT22;40337;52.978;6.310;2023-07-09T02:31:52;20.10;99.90
54429;DHT22;40337;52.978;6.310;2023-07-09T02:34:18;20.10;99.90
54429;DHT22;40337;52.978;6.310;2023-07-09T02:36:44;20.10;99.90
54429;DHT22;40337;52.978;6.310;2023-07-09T02:39:11;20.00;99.90
54429;DHT22;40337;52.978;6.310;2023-07-09T02:41:38;20.00;99.90
54429;DHT22;40337;52.978;6.310;2023-07-09T02:44:04;20.00;99.90
54429;DHT22;40337;52.978;6.310;2023-07-09T02:46:30;20.00;99.90
54429;DHT22;40337;52.978;6.310;2023-07-09T02:48:55;20.00;99.90
54429;DHT22;40337;52.978;6.310;2023-07-09T02:51:22;20.00;99.90
54429;DHT22;40337;52.978;6.310;2023-07-09T02:53:48;19.90;99.90
54429;DHT22;40337;52.978;6.310;2023-07-09T02:56:13;19.90;99.90
54429;DHT22;40337;52.978;6.310;2023-07-09T02:58:39;19.90;99.90
54429;DHT22;40337;52.978;6.310;2023-07-09T03:01:04;19.90;99.90
54429;DHT22;40337;52.978;6.310;2023-07-09T03:03:30;19.90;99.90
54429;DHT22;40337;52.978;6.310;2023-07-09T03:05:56;19.90;99.90
54429;DHT22;40337;52.978;6.310;2023-07-09T03:08:22;19.90;99.90
54429;DHT22;40337;52.978;6.310;2023-07-09T03:10:48;19.90;99.90
54429;DHT22;40337;52.978;6.310;2023-07-09T03:13:13;19.70;99.90
54429;DHT22;40337;52.978;6.310;2023-07-09T03:15:39;19.80;99.90
54429;DHT22;40337;52.978;6.310;2023-07-09T03:18:04;19.80;99.90
54429;DHT22;40337;52.978;6.310;2023-07-09T03:20:30;19.70;99.90
54429;DHT22;40337;52.978;6.310;2023-07-09T03:22:55;19.80;99.90
54429;DHT22;40337;52.978;6.310;2023-07-09T03:25:21;19.80;99.90
54429;DHT22;40337;52.978;6.310;2023-07-09T03:27:49;19.80;99.90
54429;DHT22;40337;52.978;6.310;2023-07-09T03:30:15;19.80;99.90
54429;DHT22;40337;52.978;6.310;2023-07-09T03:32:42;19.80;99.90
54429;DHT22;40337;52.978;6.310;2023-07-09T03:35:08;19.80;99.90
54429;DHT22;40337;52.978;6.310;2023-07-09T03:37:34;19.70;99.90
54429;DHT22;40337;52.978;6.310;2023-07-09T03:40:00;19.80;99.90
54429;DHT22;40337;52.978;6.310;2023-07-09T03:42:25;19.70;99.90
54429;DHT22;40337;52.978;6.310;2023-07-09T03:44:51;19.70;99.90
54429;DHT22;40337;52.978;6.310;2023-07-09T03:47:16;19.70;99.90
54429;DHT22;40337;52.978;6.310;2023-07-09T03:49:43;19.70;99.90
54429;DHT22;40337;52.978;6.310;2023-07-09T03:52:09;19.70;99.90
54429;DHT22;40337;52.978;6.310;2023-07-09T03:54:34;19.70;99.90
54429;DHT22;40337;52.978;6.310;2023-07-09T03:57:00;19.80;99.90
54429;DHT22;40337;52.978;6.310;2023-07-09T03:59:26;19.80;99.90
54429;DHT22;40337;52.978;6.310;2023-07-09T04:01:51;19.80;99.90
54429;DHT22;40337;52.978;6.310;2023-07-09T04:04:17;19.90;99.90
54429;DHT22;40337;52.978;6.310;2023-07-09T04:06:48;19.90;99.90
54429;DHT22;40337;52.978;6.310;2023-07-09T04:09:14;20.00;99.90
54429;DHT22;40337;52.978;6.310;2023-07-09T04:11:40;20.00;99.90
54429;DHT22;40337;52.978;6.310;2023-07-09T04:14:05;20.00;99.90
54429;DHT22;40337;52.978;6.310;2023-07-09T04:16:32;20.10;99.90
54429;DHT22;40337;52.978;6.310;2023-07-09T04:18:58;20.10;99.90
54429;DHT22;40337;52.978;6.310;2023-07-09T04:21:23;20.10;99.90
54429;DHT22;40337;52.978;6.310;2023-07-09T04:23:49;20.10;99.90
54429;DHT22;40337;52.978;6.310;2023-07-09T04:26:14;20.20;99.90
54429;DHT22;40337;52.978;6.310;2023-07-09T04:28:40;20.20;99.90
54429;DHT22;40337;52.978;6.310;2023-07-09T04:31:06;20.20;99.90
54429;DHT22;40337;52.978;6.310;2023-07-09T04:33:31;20.30;99.90
54429;DHT22;40337;52.978;6.310;2023-07-09T04:35:57;20.30;99.90
54429;DHT22;40337;52.978;6.310;2023-07-09T04:38:22;20.30;99.90
54429;DHT22;40337;52.978;6.310;2023-07-09T04:40:48;20.40;99.90
54429;DHT22;40337;52.978;6.310;2023-07-09T04:43:14;20.40;99.90
54429;DHT22;40337;52.978;6.310;2023-07-09T04:45:40;20.50;99.90
54429;DHT22;40337;52.978;6.310;2023-07-09T04:48:06;20.50;99.90
54429;DHT22;40337;52.978;6.310;2023-07-09T04:50:31;20.60;99.90
54429;DHT22;40337;52.978;6.310;2023-07-09T04:52:58;20.60;99.90
54429;DHT22;40337;52.978;6.310;2023-07-09T04:55:23;20.70;99.90
54429;DHT22;40337;52.978;6.310;2023-07-09T04:57:50;20.70;99.90
54429;DHT22;40337;52.978;6.310;2023-07-09T05:00:15;20.80;99.90
54429;DHT22;40337;52.978;6.310;2023-07-09T05:02:41;20.90;99.90
54429;DHT22;40337;52.978;6.310;2023-07-09T05:05:07;21.00;99.90
54429;DHT22;40337;52.978;6.310;2023-07-09T05:07:32;21.00;99.90
54429;DHT22;40337;52.978;6.310;2023-07-09T05:09:58;21.10;99.90
54429;DHT22;40337;52.978;6.310;2023-07-09T05:12:27;21.20;99.90
54429;DHT22;40337;52.978;6.310;2023-07-09T05:14:54;21.30;99.90
54429;DHT22;40337;52.978;6.310;2023-07-09T05:17:20;21.30;99.90
54429;DHT22;40337;52.978;6.310;2023-07-09T05:19:45;21.40;99.90
54429;DHT22;40337;52.978;6.310;2023-07-09T05:22:11;21.40;99.90
54429;DHT22;40337;52.978;6.310;2023-07-09T05:24:36;21.40;99.90
54429;DHT22;40337;52.978;6.310;2023-07-09T05:27:02;21.50;99.90
54429;DHT22;40337;52.978;6.310;2023-07-09T05:29:28;21.50;99.90
54429;DHT22;40337;52.978;6.310;2023-07-09T05:31:54;21.50;99.90
54429;DHT22;40337;52.978;6.310;2023-07-09T05:34:19;21.50;99.90
54429;DHT22;40337;52.978;6.310;2023-07-09T05:36:45;21.50;99.90
54429;DHT22;40337;52.978;6.310;2023-07-09T05:39:10;21.50;99.90
54429;DHT22;40337;52.978;6.310;2023-07-09T05:41:36;21.50;99.90
54429;DHT22;40337;52.978;6.310;2023-07-09T05:44:01;21.50;99.90
54429;DHT22;40337;52.978;6.310;2023-07-09T05:46:27;21.60;99.90
54429;DHT22;40337;52.978;6.310;2023-07-09T05:48:53;21.60;99.90
54429;DHT22;40337;52.978;6.310;2023-07-09T05:51:18;21.60;99.90
54429;DHT22;40337;52.978;6.310;2023-07-09T05:53:44;21.60;99.90
54429;DHT22;40337;52.978;6.310;2023-07-09T05:56:09;21.60;99.90
54429;DHT22;40337;52.978;6.310;2023-07-09T05:58:36;21.60;99.90
54429;DHT22;40337;52.978;6.310;2023-07-09T06:01:02;21.60;99.90
54429;DHT22;40337;52.978;6.310;2023-07-09T06:03:29;21.60;99.90
54429;DHT22;40337;52.978;6.310;2023-07-09T06:05:56;21.60;99.90
54429;DHT22;40337;52.978;6.310;2023-07-09T06:08:22;21.70;99.90
54429;DHT22;40337;52.978;6.310;2023-07-09T06:11:06;21.70;99.90
54429;DHT22;40337;52.978;6.310;2023-07-09T06:13:32;21.70;99.90
54429;DHT22;40337;52.978;6.310;2023-07-09T06:15:59;21.80;99.90
54429;DHT22;40337;52.978;6.310;2023-07-09T06:18:25;22.10;99.90
54429;DHT22;40337;52.978;6.310;2023-07-09T06:20:55;22.50;99.90
54429;DHT22;40337;52.978;6.310;2023-07-09T06:23:22;22.90;99.90
54429;DHT22;40337;52.978;6.310;2023-07-09T06:25:48;23.20;99.90
54429;DHT22;40337;52.978;6.310;2023-07-09T06:28:15;23.50;99.90
54429;DHT22;40337;52.978;6.310;2023-07-09T06:30:41;23.70;99.90
54429;DHT22;40337;52.978;6.310;2023-07-09T06:33:07;24.00;99.90
54429;DHT22;40337;52.978;6.310;2023-07-09T06:35:32;24.30;99.90
54429;DHT22;40337;52.978;6.310;2023-07-09T06:37:58;24.40;99.90
54429;DHT22;40337;52.978;6.310;2023-07-09T06:40:24;24.30;99.90
54429;DHT22;40337;52.978;6.310;2023-07-09T06:42:50;24.30;99.90
54429;DHT22;40337;52.978;6.310;2023-07-09T06:45:16;24.30;99.90
54429;DHT22;40337;52.978;6.310;2023-07-09T06:47:41;24.30;99.90
54429;DHT22;40337;52.978;6.310;2023-07-09T06:50:07;24.50;99.90
54429;DHT22;40337;52.978;6.310;2023-07-09T06:52:33;24.80;99.90
54429;DHT22;40337;52.978;6.310;2023-07-09T06:54:59;25.00;99.90
54429;DHT22;40337;52.978;6.310;2023-07-09T06:57:24;25.30;99.90
54429;DHT22;40337;52.978;6.310;2023-07-09T06:59:50;25.60;99.90
54429;DHT22;40337;52.978;6.310;2023-07-09T07:02:15;25.80;99.90
54429;DHT22;40337;52.978;6.310;2023-07-09T07:04:41;26.00;99.90
54429;DHT22;40337;52.978;6.310;2023-07-09T07:07:07;25.90;99.90
54429;DHT22;40337;52.978;6.310;2023-07-09T07:09:32;25.80;99.90
54429;DHT22;40337;52.978;6.310;2023-07-09T07:11:58;25.80;99.90
54429;DHT22;40337;52.978;6.310;2023-07-09T07:14:24;25.90;99.90
54429;DHT22;40337;52.978;6.310;2023-07-09T07:16:50;26.00;99.90
54429;DHT22;40337;52.978;6.310;2023-07-09T07:19:16;26.10;99.90
54429;DHT22;40337;52.978;6.310;2023-07-09T07:21:41;26.20;99.90
54429;DHT22;40337;52.978;6.310;2023-07-09T07:24:07;26.40;99.90
54429;DHT22;40337;52.978;6.310;2023-07-09T07:26:32;26.60;99.90
54429;DHT22;40337;52.978;6.310;2023-07-09T07:28:58;26.90;99.90
54429;DHT22;40337;52.978;6.310;2023-07-09T07:31:24;27.00;99.90
54429;DHT22;40337;52.978;6.310;2023-07-09T07:33:51;27.10;99.90
54429;DHT22;40337;52.978;6.310;2023-07-09T07:36:16;27.30;99.90
54429;DHT22;40337;52.978;6.310;2023-07-09T07:38:42;27.40;99.90
54429;DHT22;40337;52.978;6.310;2023-07-09T07:41:07;27.40;99.80
54429;DHT22;40337;52.978;6.310;2023-07-09T07:43:33;27.60;99.90
54429;DHT22;40337;52.978;6.310;2023-07-09T07:45:58;27.80;99.80
54429;DHT22;40337;52.978;6.310;2023-07-09T07:48:24;28.00;99.80
54429;DHT22;40337;52.978;6.310;2023-07-09T07:50:50;28.20;99.30
54429;DHT22;40337;52.978;6.310;2023-07-09T07:53:16;28.30;98.70
54429;DHT22;40337;52.978;6.310;2023-07-09T07:55:42;28.50;98.10
54429;DHT22;40337;52.978;6.310;2023-07-09T07:58:12;28.70;98.40
54429;DHT22;40337;52.978;6.310;2023-07-09T08:00:39;28.70;99.00
54429;DHT22;40337;52.978;6.310;2023-07-09T08:03:04;28.80;98.30
54429;DHT22;40337;52.978;6.310;2023-07-09T08:05:30;28.90;98.50
54429;DHT22;40337;52.978;6.310;2023-07-09T08:07:56;29.00;97.90
54429;DHT22;40337;52.978;6.310;2023-07-09T08:10:22;28.90;98.60
54429;DHT22;40337;52.978;6.310;2023-07-09T08:12:47;28.90;98.90
54429;DHT22;40337;52.978;6.310;2023-07-09T08:15:13;28.90;99.00
54429;DHT22;40337;52.978;6.310;2023-07-09T08:17:39;28.70;98.80
54429;DHT22;40337;52.978;6.310;2023-07-09T08:20:05;28.50;99.10
54429;DHT22;40337;52.978;6.310;2023-07-09T08:22:31;28.50;99.50
54429;DHT22;40337;52.978;6.310;2023-07-09T08:24:56;28.60;99.50
54429;DHT22;40337;52.978;6.310;2023-07-09T08:27:22;28.70;99.70
54429;DHT22;40337;52.978;6.310;2023-07-09T08:29:47;28.90;99.70
54429;DHT22;40337;52.978;6.310;2023-07-09T08:32:13;29.10;98.80
54429;DHT22;40337;52.978;6.310;2023-07-09T08:34:40;29.30;99.00
54429;DHT22;40337;52.978;6.310;2023-07-09T08:37:07;29.50;98.60
54429;DHT22;40337;52.978;6.310;2023-07-09T08:39:33;29.60;97.40
54429;DHT22;40337;52.978;6.310;2023-07-09T08:42:07;29.80;97.40
54429;DHT22;40337;52.978;6.310;2023-07-09T08:47:47;30.20;96.50
54429;DHT22;40337;52.978;6.310;2023-07-09T08:50:37;30.40;96.20
54429;DHT22;40337;52.978;6.310;2023-07-09T08:53:05;30.60;95.80
54429;DHT22;40337;52.978;6.310;2023-07-09T08:55:34;30.80;95.60
54429;DHT22;40337;52.978;6.310;2023-07-09T08:58:23;30.80;95.20
54429;DHT22;40337;52.978;6.310;2023-07-09T09:00:57;30.90;94.60
54429;DHT22;40337;52.978;6.310;2023-07-09T09:03:41;31.00;94.60
54429;DHT22;40337;52.978;6.310;2023-07-09T09:06:17;31.10;94.80
54429;DHT22;40337;52.978;6.310;2023-07-09T09:11:57;31.00;94.10
54429;DHT22;40337;52.978;6.310;2023-07-09T09:14:37;31.00;94.70
54429;DHT22;40337;52.978;6.310;2023-07-09T09:17:17;31.10;93.90
54429;DHT22;40337;52.978;6.310;2023-07-09T09:19:56;31.30;94.80
54429;DHT22;40337;52.978;6.310;2023-07-09T09:27:36;31.60;94.30
54429;DHT22;40337;52.978;6.310;2023-07-09T09:30:04;31.70;93.50
54429;DHT22;40337;52.978;6.310;2023-07-09T09:32:37;31.80;94.20
54429;DHT22;40337;52.978;6.310;2023-07-09T09:35:15;31.80;93.60
54429;DHT22;40337;52.978;6.310;2023-07-09T09:37:43;31.80;93.40
54429;DHT22;40337;52.978;6.310;2023-07-09T09:40:09;32.00;93.70
54429;DHT22;40337;52.978;6.310;2023-07-09T09:42:35;32.20;94.70
54429;DHT22;40337;52.978;6.310;2023-07-09T09:45:01;32.20;93.70
54429;DHT22;40337;52.978;6.310;2023-07-09T09:47:27;32.30;93.20
54429;DHT22;40337;52.978;6.310;2023-07-09T09:49:54;32.50;93.70
54429;DHT22;40337;52.978;6.310;2023-07-09T09:52:20;32.50;93.40
54429;DHT22;40337;52.978;6.310;2023-07-09T09:54:52;32.70;92.50
54429;DHT22;40337;52.978;6.310;2023-07-09T09:57:22;32.80;94.40
54429;DHT22;40337;52.978;6.310;2023-07-09T09:59:48;32.80;93.90
54429;DHT22;40337;52.978;6.310;2023-07-09T10:02:24;33.00;92.70
54429;DHT22;40337;52.978;6.310;2023-07-09T10:04:51;32.90;94.10
54429;DHT22;40337;52.978;6.310;2023-07-09T10:07:32;33.10;92.30
54429;DHT22;40337;52.978;6.310;2023-07-09T10:10:00;33.20;93.80
54429;DHT22;40337;52.978;6.310;2023-07-09T10:15:51;33.10;90.80
54429;DHT22;40337;52.978;6.310;2023-07-09T10:21:03;33.20;90.90
54429;DHT22;40337;52.978;6.310;2023-07-09T10:23:56;33.40;92.50
54429;DHT22;40337;52.978;6.310;2023-07-09T10:26:51;33.50;94.20
54429;DHT22;40337;52.978;6.310;2023-07-09T10:32:29;33.70;91.20
54429;DHT22;40337;52.978;6.310;2023-07-09T10:35:07;33.80;91.60
54429;DHT22;40337;52.978;6.310;2023-07-09T10:40:41;34.00;91.30
54429;DHT22;40337;52.978;6.310;2023-07-09T10:43:13;34.10;92.30
54429;DHT22;40337;52.978;6.310;2023-07-09T10:45:44;34.10;91.30
54429;DHT22;40337;52.978;6.310;2023-07-09T10:48:32;34.10;91.00
54429;DHT22;40337;52.978;6.310;2023-07-09T10:51:00;34.20;91.70
54429;DHT22;40337;52.978;6.310;2023-07-09T10:53:47;34.30;91.80
54429;DHT22;40337;52.978;6.310;2023-07-09T10:56:34;34.40;91.80
54429;DHT22;40337;52.978;6.310;2023-07-09T10:59:28;34.50;90.90
54429;DHT22;40337;52.978;6.310;2023-07-09T11:04:44;34.40;89.40
54429;DHT22;40337;52.978;6.310;2023-07-09T11:07:14;34.50;90.60
54429;DHT22;40337;52.978;6.310;2023-07-09T11:09:46;34.60;89.40
54429;DHT22;40337;52.978;6.310;2023-07-09T11:12:17;34.60;90.10
54429;DHT22;40337;52.978;6.310;2023-07-09T11:14:51;34.60;90.20
54429;DHT22;40337;52.978;6.310;2023-07-09T11:17:19;34.70;88.60
54429;DHT22;40337;52.978;6.310;2023-07-09T11:19:48;34.70;89.00
54429;DHT22;40337;52.978;6.310;2023-07-09T11:22:17;34.80;90.00
54429;DHT22;40337;52.978;6.310;2023-07-09T11:24:51;34.80;90.20
54429;DHT22;40337;52.978;6.310;2023-07-09T11:27:20;34.80;88.40
54429;DHT22;40337;52.978;6.310;2023-07-09T11:29:48;34.90;90.00
54429;DHT22;40337;52.978;6.310;2023-07-09T11:32:19;35.00;90.70
54429;DHT22;40337;52.978;6.310;2023-07-09T11:34:46;35.20;90.70
54429;DHT22;40337;52.978;6.310;2023-07-09T11:37:13;35.20;90.70
54429;DHT22;40337;52.978;6.310;2023-07-09T11:42:31;35.40;89.40
54429;DHT22;40337;52.978;6.310;2023-07-09T11:45:06;35.40;85.20
54429;DHT22;40337;52.978;6.310;2023-07-09T11:47:49;35.40;87.90
54429;DHT22;40337;52.978;6.310;2023-07-09T11:50:31;35.50;86.30
54429;DHT22;40337;52.978;6.310;2023-07-09T11:53:02;35.60;87.50
54429;DHT22;40337;52.978;6.310;2023-07-09T11:55:38;35.80;85.70
54429;DHT22;40337;52.978;6.310;2023-07-09T11:58:06;35.70;85.70
54429;DHT22;40337;52.978;6.310;2023-07-09T12:00:52;35.70;84.30
54429;DHT22;40337;52.978;6.310;2023-07-09T12:03:25;35.70;88.50
54429;DHT22;40337;52.978;6.310;2023-07-09T12:05:56;35.90;90.00
54429;DHT22;40337;52.978;6.310;2023-07-09T12:08:34;36.00;88.40
54429;DHT22;40337;52.978;6.310;2023-07-09T12:11:00;36.10;83.00
54429;DHT22;40337;52.978;6.310;2023-07-09T12:13:26;36.10;83.70
54429;DHT22;40337;52.978;6.310;2023-07-09T12:15:52;36.10;82.40
54429;DHT22;40337;52.978;6.310;2023-07-09T12:18:17;36.20;84.70
54429;DHT22;40337;52.978;6.310;2023-07-09T12:20:48;36.10;82.60
54429;DHT22;40337;52.978;6.310;2023-07-09T12:23:27;36.00;82.30
54429;DHT22;40337;52.978;6.310;2023-07-09T12:25:54;36.00;84.10
54429;DHT22;40337;52.978;6.310;2023-07-09T12:28:21;35.50;86.80
54429;DHT22;40337;52.978;6.310;2023-07-09T12:30:49;35.20;86.90
54429;DHT22;40337;52.978;6.310;2023-07-09T12:33:26;35.20;89.10
54429;DHT22;40337;52.978;6.310;2023-07-09T12:38:25;35.20;83.00
54429;DHT22;40337;52.978;6.310;2023-07-09T12:40:51;35.30;84.20
54429;DHT22;40337;52.978;6.310;2023-07-09T12:43:24;35.20;82.70
54429;DHT22;40337;52.978;6.310;2023-07-09T12:45:51;35.20;83.40
54429;DHT22;40337;52.978;6.310;2023-07-09T12:48:20;35.00;84.60
54429;DHT22;40337;52.978;6.310;2023-07-09T12:50:51;34.80;85.30
54429;DHT22;40337;52.978;6.310;2023-07-09T12:53:20;34.70;86.60
54429;DHT22;40337;52.978;6.310;2023-07-09T12:55:55;34.50;84.40
54429;DHT22;40337;52.978;6.310;2023-07-09T12:58:23;34.40;84.70
54429;DHT22;40337;52.978;6.310;2023-07-09T13:00:51;34.50;85.90
54429;DHT22;40337;52.978;6.310;2023-07-09T13:03:24;34.30;88.30
54429;DHT22;40337;52.978;6.310;2023-07-09T13:05:56;34.20;88.40
54429;DHT22;40337;52.978;6.310;2023-07-09T13:08:22;34.10;90.30
54429;DHT22;40337;52.978;6.310;2023-07-09T13:10:47;33.90;88.20
54429;DHT22;40337;52.978;6.310;2023-07-09T13:13:19;33.80;87.20
54429;DHT22;40337;52.978;6.310;2023-07-09T13:15:50;33.70;87.20
54429;DHT22;40337;52.978;6.310;2023-07-09T13:18:16;33.60;90.00
54429;DHT22;40337;52.978;6.310;2023-07-09T13:20:44;33.70;90.10
54429;DHT22;40337;52.978;6.310;2023-07-09T13:23:18;33.80;89.90
54429;DHT22;40337;52.978;6.310;2023-07-09T13:25:44;33.80;90.70
54429;DHT22;40337;52.978;6.310;2023-07-09T13:28:28;33.90;90.50
54429;DHT22;40337;52.978;6.310;2023-07-09T13:30:57;34.10;91.30
54429;DHT22;40337;52.978;6.310;2023-07-09T13:33:24;34.10;89.90
54429;DHT22;40337;52.978;6.310;2023-07-09T13:35:49;34.10;90.20
54429;DHT22;40337;52.978;6.310;2023-07-09T13:38:20;34.30;90.40
54429;DHT22;40337;52.978;6.310;2023-07-09T13:40:48;34.30;91.50
54429;DHT22;40337;52.978;6.310;2023-07-09T13:43:18;34.50;91.20
54429;DHT22;40337;52.978;6.310;2023-07-09T13:45:45;34.80;90.80
54429;DHT22;40337;52.978;6.310;2023-07-09T13:48:20;34.70;90.40
54429;DHT22;40337;52.978;6.310;2023-07-09T13:50:49;34.80;90.50
54429;DHT22;40337;52.978;6.310;2023-07-09T13:53:21;34.80;90.50
54429;DHT22;40337;52.978;6.310;2023-07-09T13:55:47;35.00;90.80
54429;DHT22;40337;52.978;6.310;2023-07-09T13:58:17;35.10;91.30
54429;DHT22;40337;52.978;6.310;2023-07-09T14:00:43;35.10;90.10
54429;DHT22;40337;52.978;6.310;2023-07-09T14:03:30;35.00;89.30
54429;DHT22;40337;52.978;6.310;2023-07-09T14:05:56;34.50;89.30
54429;DHT22;40337;52.978;6.310;2023-07-09T14:08:22;34.60;89.80
54429;DHT22;40337;52.978;6.310;2023-07-09T14:10:48;34.60;88.90
54429;DHT22;40337;52.978;6.310;2023-07-09T14:13:17;34.70;88.80
54429;DHT22;40337;52.978;6.310;2023-07-09T14:15:42;34.70;87.60
54429;DHT22;40337;52.978;6.310;2023-07-09T14:18:13;34.60;86.40
54429;DHT22;40337;52.978;6.310;2023-07-09T14:20:39;34.30;87.80
54429;DHT22;40337;52.978;6.310;2023-07-09T14:23:05;33.90;87.30
54429;DHT22;40337;52.978;6.310;2023-07-09T14:25:30;33.50;88.20
54429;DHT22;40337;52.978;6.310;2023-07-09T14:27:56;33.20;89.70
54429;DHT22;40337;52.978;6.310;2023-07-09T14:30:24;32.90;89.90
54429;DHT22;40337;52.978;6.310;2023-07-09T14:32:51;32.60;89.80
54429;DHT22;40337;52.978;6.310;2023-07-09T14:35:19;32.30;89.30
54429;DHT22;40337;52.978;6.310;2023-07-09T14:37:47;32.10;89.30
54429;DHT22;40337;52.978;6.310;2023-07-09T14:40:14;31.80;89.90
54429;DHT22;40337;52.978;6.310;2023-07-09T14:42:41;31.50;88.70
54429;DHT22;40337;52.978;6.310;2023-07-09T14:45:17;31.30;88.30
54429;DHT22;40337;52.978;6.310;2023-07-09T14:47:43;31.00;89.90
54429;DHT22;40337;52.978;6.310;2023-07-09T14:50:09;30.80;89.50
54429;DHT22;40337;52.978;6.310;2023-07-09T14:52:35;30.70;89.00
54429;DHT22;40337;52.978;6.310;2023-07-09T14:55:02;30.50;88.80
54429;DHT22;40337;52.978;6.310;2023-07-09T14:57:28;30.30;88.70
54429;DHT22;40337;52.978;6.310;2023-07-09T14:59:56;30.00;87.20
54429;DHT22;40337;52.978;6.310;2023-07-09T15:02:37;29.50;83.00
54429;DHT22;40337;52.978;6.310;2023-07-09T15:05:06;29.10;83.50
54429;DHT22;40337;52.978;6.310;2023-07-09T15:07:32;28.40;84.30
54429;DHT22;40337;52.978;6.310;2023-07-09T15:10:00;27.30;88.00
54429;DHT22;40337;52.978;6.310;2023-07-09T15:12:28;26.20;93.00
54429;DHT22;40337;52.978;6.310;2023-07-09T15:17:44;24.40;97.20
54429;DHT22;40337;52.978;6.310;2023-07-09T15:20:18;23.70;99.10
54429;DHT22;40337;52.978;6.310;2023-07-09T15:22:45;23.40;99.90
54429;DHT22;40337;52.978;6.310;2023-07-09T15:25:40;23.20;99.90
54429;DHT22;40337;52.978;6.310;2023-07-09T15:28:10;23.10;99.90
54429;DHT22;40337;52.978;6.310;2023-07-09T15:30:35;23.00;99.90
54429;DHT22;40337;52.978;6.310;2023-07-09T15:33:02;23.00;99.90
54429;DHT22;40337;52.978;6.310;2023-07-09T15:35:32;23.00;99.90
54429;DHT22;40337;52.978;6.310;2023-07-09T15:37:58;23.00;99.90
54429;DHT22;40337;52.978;6.310;2023-07-09T15:40:27;23.00;99.90
54429;DHT22;40337;52.978;6.310;2023-07-09T15:42:58;23.10;99.90
54429;DHT22;40337;52.978;6.310;2023-07-09T15:45:26;23.10;99.90
54429;DHT22;40337;52.978;6.310;2023-07-09T15:47:52;23.10;99.90
54429;DHT22;40337;52.978;6.310;2023-07-09T15:50:19;23.10;99.90
54429;DHT22;40337;52.978;6.310;2023-07-09T15:52:45;23.10;99.90
54429;DHT22;40337;52.978;6.310;2023-07-09T15:55:16;23.10;99.90
54429;DHT22;40337;52.978;6.310;2023-07-09T15:57:44;23.10;99.90
54429;DHT22;40337;52.978;6.310;2023-07-09T16:00:19;23.10;99.90
54429;DHT22;40337;52.978;6.310;2023-07-09T16:02:46;23.00;99.90
54429;DHT22;40337;52.978;6.310;2023-07-09T16:05:21;23.00;99.90
54429;DHT22;40337;52.978;6.310;2023-07-09T16:07:50;23.00;99.90
54429;DHT22;40337;52.978;6.310;2023-07-09T16:10:16;22.90;99.90
54429;DHT22;40337;52.978;6.310;2023-07-09T16:12:42;22.90;99.90
54429;DHT22;40337;52.978;6.310;2023-07-09T16:15:12;22.90;99.90